sensor_id;sensor_type;location;lat;lon;timestamp;P1;durP1;ratioP1;P2;durP2;ratioP2
78787;SDS011;68131;52.508;5.502;2023-07-31T00:02:26;0.17;;;0.10;;
78787;SDS011;68131;52.508;5.502;2023-07-31T00:04:55;1.52;;;0.40;;
78787;SDS011;68131;52.508;5.502;2023-07-31T00:07:24;0.30;;;0.28;;
78787;SDS011;68131;52.508;5.502;2023-07-31T00:09:53;0.00;;;0.00;;
78787;SDS011;68131;52.508;5.502;2023-07-31T00:12:26;0.20;;;0.20;;
78787;SDS011;68131;52.508;5.502;2023-07-31T00:14:55;0.28;;;0.10;;
78787;SDS011;68131;52.508;5.502;2023-07-31T00:17:24;0.82;;;0.30;;
78787;SDS011;68131;52.508;5.502;2023-07-31T00:19:53;0.47;;;0.45;;
78787;SDS011;68131;52.508;5.502;2023-07-31T00:22:23;0.40;;;0.20;;
78787;SDS011;68131;52.508;5.502;2023-07-31T00:24:55;0.10;;;0.10;;
78787;SDS011;68131;52.508;5.502;2023-07-31T00:27:28;0.30;;;0.20;;
78787;SDS011;68131;52.508;5.502;2023-07-31T00:29:57;0.60;;;0.22;;
78787;SDS011;68131;52.508;5.502;2023-07-31T00:32:26;0.38;;;0.28;;
78787;SDS011;68131;52.508;5.502;2023-07-31T00:34:55;0.35;;;0.10;;
78787;SDS011;68131;52.508;5.502;2023-07-31T00:37:24;0.35;;;0.28;;
78787;SDS011;68131;52.508;5.502;2023-07-31T00:39:53;0.57;;;0.22;;
78787;SDS011;68131;52.508;5.502;2023-07-31T00:42:23;0.38;;;0.10;;
78787;SDS011;68131;52.508;5.502;2023-07-31T00:44:55;0.73;;;0.35;;
78787;SDS011;68131;52.508;5.502;2023-07-31T00:47:24;0.75;;;0.30;;
78787;SDS011;68131;52.508;5.502;2023-07-31T00:49:54;1.60;;;0.35;;
78787;SDS011;68131;52.508;5.502;2023-07-31T00:52:23;0.70;;;0.32;;
78787;SDS011;68131;52.508;5.502;2023-07-31T00:54:53;0.40;;;0.30;;
78787;SDS011;68131;52.508;5.502;2023-07-31T00:57:25;1.65;;;0.60;;
78787;SDS011;68131;52.508;5.502;2023-07-31T00:59:56;0.73;;;0.17;;
78787;SDS011;68131;52.508;5.502;2023-07-31T01:02:26;0.90;;;0.30;;
78787;SDS011;68131;52.508;5.502;2023-07-31T01:04:55;2.85;;;0.68;;
78787;SDS011;68131;52.508;5.502;2023-07-31T01:07:27;0.80;;;0.50;;
78787;SDS011;68131;52.508;5.502;2023-07-31T01:10:08;5.75;;;0.70;;
78787;SDS011;68131;52.508;5.502;2023-07-31T01:12:43;3.33;;;0.60;;
78787;SDS011;68131;52.508;5.502;2023-07-31T01:15:16;1.98;;;1.05;;
78787;SDS011;68131;52.508;5.502;2023-07-31T01:17:48;2.10;;;0.60;;
78787;SDS011;68131;52.508;5.502;2023-07-31T01:20:18;4.63;;;0.80;;
78787;SDS011;68131;52.508;5.502;2023-07-31T01:23:03;5.80;;;1.08;;
78787;SDS011;68131;52.508;5.502;2023-07-31T01:25:54;2.15;;;0.85;;
78787;SDS011;68131;52.508;5.502;2023-07-31T01:28:30;1.48;;;0.93;;
78787;SDS011;68131;52.508;5.502;2023-07-31T01:31:07;4.10;;;1.30;;
78787;SDS011;68131;52.508;5.502;2023-07-31T01:33:41;2.22;;;0.93;;
78787;SDS011;68131;52.508;5.502;2023-07-31T01:36:10;2.45;;;1.02;;
78787;SDS011;68131;52.508;5.502;2023-07-31T01:38:40;1.85;;;0.90;;
78787;SDS011;68131;52.508;5.502;2023-07-31T01:41:16;1.02;;;0.63;;
78787;SDS011;68131;52.508;5.502;2023-07-31T01:43:45;1.05;;;0.77;;
78787;SDS011;68131;52.508;5.502;2023-07-31T01:46:16;1.27;;;0.55;;
78787;SDS011;68131;52.508;5.502;2023-07-31T01:48:45;2.85;;;0.90;;
78787;SDS011;68131;52.508;5.502;2023-07-31T01:51:14;2.50;;;1.10;;
78787;SDS011;68131;52.508;5.502;2023-07-31T01:53:43;4.18;;;0.80;;
78787;SDS011;68131;52.508;5.502;2023-07-31T01:56:15;1.63;;;0.90;;
78787;SDS011;68131;52.508;5.502;2023-07-31T01:58:44;5.88;;;1.42;;
78787;SDS011;68131;52.508;5.502;2023-07-31T02:01:14;3.00;;;1.33;;
78787;SDS011;68131;52.508;5.502;2023-07-31T02:03:43;2.63;;;0.98;;
78787;SDS011;68131;52.508;5.502;2023-07-31T02:06:14;1.85;;;0.60;;
78787;SDS011;68131;52.508;5.502;2023-07-31T02:08:44;2.65;;;1.45;;
78787;SDS011;68131;52.508;5.502;2023-07-31T02:11:16;1.23;;;0.80;;
78787;SDS011;68131;52.508;5.502;2023-07-31T02:13:45;3.25;;;0.88;;
78787;SDS011;68131;52.508;5.502;2023-07-31T02:16:14;5.85;;;0.93;;
78787;SDS011;68131;52.508;5.502;2023-07-31T02:18:45;4.78;;;1.05;;
78787;SDS011;68131;52.508;5.502;2023-07-31T02:21:17;4.18;;;1.05;;
78787;SDS011;68131;52.508;5.502;2023-07-31T02:23:44;1.88;;;1.15;;
78787;SDS011;68131;52.508;5.502;2023-07-31T02:26:16;3.47;;;1.15;;
78787;SDS011;68131;52.508;5.502;2023-07-31T02:28:47;1.30;;;1.13;;
78787;SDS011;68131;52.508;5.502;2023-07-31T02:31:17;1.60;;;0.82;;
78787;SDS011;68131;52.508;5.502;2023-07-31T02:33:47;2.35;;;0.98;;
78787;SDS011;68131;52.508;5.502;2023-07-31T02:36:19;1.98;;;0.90;;
78787;SDS011;68131;52.508;5.502;2023-07-31T02:38:49;1.67;;;0.63;;
78787;SDS011;68131;52.508;5.502;2023-07-31T02:41:21;5.97;;;0.90;;
78787;SDS011;68131;52.508;5.502;2023-07-31T02:43:50;4.30;;;1.23;;
78787;SDS011;68131;52.508;5.502;2023-07-31T02:46:19;2.47;;;1.15;;
78787;SDS011;68131;52.508;5.502;2023-07-31T02:48:50;6.10;;;1.90;;
78787;SDS011;68131;52.508;5.502;2023-07-31T02:51:19;2.95;;;1.48;;
78787;SDS011;68131;52.508;5.502;2023-07-31T02:53:49;2.55;;;1.35;;
78787;SDS011;68131;52.508;5.502;2023-07-31T02:56:18;2.92;;;1.40;;
78787;SDS011;68131;52.508;5.502;2023-07-31T02:58:49;3.97;;;1.30;;
78787;SDS011;68131;52.508;5.502;2023-07-31T03:01:19;2.13;;;1.10;;
78787;SDS011;68131;52.508;5.502;2023-07-31T03:03:48;6.38;;;2.05;;
78787;SDS011;68131;52.508;5.502;2023-07-31T03:06:17;4.85;;;1.67;;
78787;SDS011;68131;52.508;5.502;2023-07-31T03:08:47;8.27;;;2.15;;
78787;SDS011;68131;52.508;5.502;2023-07-31T03:11:16;2.95;;;1.52;;
78787;SDS011;68131;52.508;5.502;2023-07-31T03:13:50;5.10;;;1.40;;
78787;SDS011;68131;52.508;5.502;2023-07-31T03:16:22;5.53;;;1.13;;
78787;SDS011;68131;52.508;5.502;2023-07-31T03:18:51;5.57;;;1.65;;
78787;SDS011;68131;52.508;5.502;2023-07-31T03:21:20;5.28;;;2.05;;
78787;SDS011;68131;52.508;5.502;2023-07-31T03:23:50;5.32;;;1.67;;
78787;SDS011;68131;52.508;5.502;2023-07-31T03:26:19;3.70;;;1.17;;
78787;SDS011;68131;52.508;5.502;2023-07-31T03:28:53;7.53;;;2.15;;
78787;SDS011;68131;52.508;5.502;2023-07-31T03:31:23;5.40;;;1.40;;
78787;SDS011;68131;52.508;5.502;2023-07-31T03:33:52;4.40;;;2.20;;
78787;SDS011;68131;52.508;5.502;2023-07-31T03:36:22;4.63;;;2.17;;
78787;SDS011;68131;52.508;5.502;2023-07-31T03:38:53;6.70;;;1.98;;
78787;SDS011;68131;52.508;5.502;2023-07-31T03:41:24;7.72;;;1.95;;
78787;SDS011;68131;52.508;5.502;2023-07-31T03:43:58;7.40;;;2.13;;
78787;SDS011;68131;52.508;5.502;2023-07-31T03:46:27;5.90;;;1.63;;
78787;SDS011;68131;52.508;5.502;2023-07-31T03:48:56;2.17;;;1.10;;
78787;SDS011;68131;52.508;5.502;2023-07-31T03:51:29;6.03;;;1.58;;
78787;SDS011;68131;52.508;5.502;2023-07-31T03:53:58;7.32;;;1.67;;
78787;SDS011;68131;52.508;5.502;2023-07-31T03:56:27;4.10;;;1.80;;
78787;SDS011;68131;52.508;5.502;2023-07-31T03:58:59;3.67;;;1.60;;
78787;SDS011;68131;52.508;5.502;2023-07-31T04:01:28;3.08;;;1.95;;
78787;SDS011;68131;52.508;5.502;2023-07-31T04:04:03;3.25;;;1.60;;
78787;SDS011;68131;52.508;5.502;2023-07-31T04:06:32;3.35;;;1.50;;
78787;SDS011;68131;52.508;5.502;2023-07-31T04:09:01;7.63;;;1.83;;
78787;SDS011;68131;52.508;5.502;2023-07-31T04:11:31;8.02;;;2.17;;
78787;SDS011;68131;52.508;5.502;2023-07-31T04:14:03;5.53;;;2.15;;
78787;SDS011;68131;52.508;5.502;2023-07-31T04:16:32;4.70;;;1.30;;
78787;SDS011;68131;52.508;5.502;2023-07-31T04:19:01;7.03;;;1.75;;
78787;SDS011;68131;52.508;5.502;2023-07-31T04:21:30;3.38;;;1.60;;
78787;SDS011;68131;52.508;5.502;2023-07-31T04:24:00;5.05;;;2.45;;
78787;SDS011;68131;52.508;5.502;2023-07-31T04:26:29;4.93;;;1.85;;
78787;SDS011;68131;52.508;5.502;2023-07-31T04:28:58;4.72;;;1.88;;
78787;SDS011;68131;52.508;5.502;2023-07-31T04:31:33;5.07;;;1.48;;
78787;SDS011;68131;52.508;5.502;2023-07-31T04:34:02;11.57;;;2.35;;
78787;SDS011;68131;52.508;5.502;2023-07-31T04:36:32;7.00;;;2.20;;
78787;SDS011;68131;52.508;5.502;2023-07-31T04:39:02;3.70;;;1.60;;
78787;SDS011;68131;52.508;5.502;2023-07-31T04:41:31;6.32;;;1.38;;
78787;SDS011;68131;52.508;5.502;2023-07-31T04:44:03;8.60;;;2.00;;
78787;SDS011;68131;52.508;5.502;2023-07-31T04:46:35;4.38;;;1.80;;
78787;SDS011;68131;52.508;5.502;2023-07-31T04:49:04;5.72;;;2.05;;
78787;SDS011;68131;52.508;5.502;2023-07-31T04:51:33;3.80;;;1.55;;
78787;SDS011;68131;52.508;5.502;2023-07-31T04:54:02;7.20;;;2.17;;
78787;SDS011;68131;52.508;5.502;2023-07-31T04:56:32;4.45;;;1.90;;
78787;SDS011;68131;52.508;5.502;2023-07-31T04:59:01;3.88;;;1.55;;
78787;SDS011;68131;52.508;5.502;2023-07-31T05:01:30;5.30;;;2.08;;
78787;SDS011;68131;52.508;5.502;2023-07-31T05:04:02;4.55;;;1.67;;
78787;SDS011;68131;52.508;5.502;2023-07-31T05:06:34;6.72;;;1.65;;
78787;SDS011;68131;52.508;5.502;2023-07-31T05:09:05;3.58;;;1.80;;
78787;SDS011;68131;52.508;5.502;2023-07-31T05:11:35;7.50;;;1.63;;
78787;SDS011;68131;52.508;5.502;2023-07-31T05:14:05;4.13;;;2.13;;
78787;SDS011;68131;52.508;5.502;2023-07-31T05:16:35;6.95;;;1.88;;
78787;SDS011;68131;52.508;5.502;2023-07-31T05:19:07;3.25;;;1.25;;
78787;SDS011;68131;52.508;5.502;2023-07-31T05:21:36;5.30;;;2.35;;
78787;SDS011;68131;52.508;5.502;2023-07-31T05:24:07;5.50;;;1.88;;
78787;SDS011;68131;52.508;5.502;2023-07-31T05:26:36;5.40;;;1.98;;
78787;SDS011;68131;52.508;5.502;2023-07-31T05:29:05;2.63;;;1.50;;
78787;SDS011;68131;52.508;5.502;2023-07-31T05:31:37;2.47;;;1.45;;
78787;SDS011;68131;52.508;5.502;2023-07-31T05:34:09;6.85;;;1.67;;
78787;SDS011;68131;52.508;5.502;2023-07-31T05:36:38;3.15;;;1.80;;
78787;SDS011;68131;52.508;5.502;2023-07-31T05:39:10;6.07;;;1.45;;
78787;SDS011;68131;52.508;5.502;2023-07-31T05:41:40;10.70;;;1.63;;
78787;SDS011;68131;52.508;5.502;2023-07-31T05:44:09;7.70;;;1.50;;
78787;SDS011;68131;52.508;5.502;2023-07-31T05:46:38;2.70;;;1.73;;
78787;SDS011;68131;52.508;5.502;2023-07-31T05:49:10;6.07;;;1.60;;
78787;SDS011;68131;52.508;5.502;2023-07-31T05:51:39;6.38;;;1.67;;
78787;SDS011;68131;52.508;5.502;2023-07-31T05:54:09;5.88;;;1.45;;
78787;SDS011;68131;52.508;5.502;2023-07-31T05:56:39;2.88;;;1.27;;
78787;SDS011;68131;52.508;5.502;2023-07-31T05:59:08;2.47;;;1.25;;
78787;SDS011;68131;52.508;5.502;2023-07-31T06:01:38;2.53;;;1.40;;
78787;SDS011;68131;52.508;5.502;2023-07-31T06:04:10;2.03;;;0.93;;
78787;SDS011;68131;52.508;5.502;2023-07-31T06:06:42;3.20;;;1.55;;
78787;SDS011;68131;52.508;5.502;2023-07-31T06:09:11;1.20;;;0.75;;
78787;SDS011;68131;52.508;5.502;2023-07-31T06:11:40;3.33;;;1.25;;
78787;SDS011;68131;52.508;5.502;2023-07-31T06:14:09;0.75;;;0.50;;
78787;SDS011;68131;52.508;5.502;2023-07-31T06:16:42;1.70;;;0.50;;
78787;SDS011;68131;52.508;5.502;2023-07-31T06:19:15;2.75;;;0.82;;
78787;SDS011;68131;52.508;5.502;2023-07-31T06:21:44;2.50;;;0.70;;
78787;SDS011;68131;52.508;5.502;2023-07-31T06:24:16;0.55;;;0.45;;
78787;SDS011;68131;52.508;5.502;2023-07-31T06:26:46;2.35;;;0.60;;
78787;SDS011;68131;52.508;5.502;2023-07-31T06:29:16;1.33;;;0.50;;
78787;SDS011;68131;52.508;5.502;2023-07-31T06:31:45;1.35;;;0.40;;
78787;SDS011;68131;52.508;5.502;2023-07-31T06:34:17;1.70;;;0.50;;
78787;SDS011;68131;52.508;5.502;2023-07-31T06:36:46;1.10;;;1.05;;
78787;SDS011;68131;52.508;5.502;2023-07-31T06:39:15;0.68;;;0.30;;
78787;SDS011;68131;52.508;5.502;2023-07-31T06:41:45;0.75;;;0.57;;
78787;SDS011;68131;52.508;5.502;2023-07-31T06:44:14;0.40;;;0.40;;
78787;SDS011;68131;52.508;5.502;2023-07-31T06:46:43;1.35;;;0.50;;
78787;SDS011;68131;52.508;5.502;2023-07-31T06:49:12;1.42;;;0.73;;
78787;SDS011;68131;52.508;5.502;2023-07-31T06:51:45;0.88;;;0.40;;
78787;SDS011;68131;52.508;5.502;2023-07-31T06:54:14;2.10;;;0.88;;
78787;SDS011;68131;52.508;5.502;2023-07-31T06:56:43;1.73;;;0.70;;
78787;SDS011;68131;52.508;5.502;2023-07-31T06:59:13;0.50;;;0.45;;
78787;SDS011;68131;52.508;5.502;2023-07-31T07:01:42;1.27;;;0.70;;
78787;SDS011;68131;52.508;5.502;2023-07-31T07:04:11;1.13;;;0.55;;
78787;SDS011;68131;52.508;5.502;2023-07-31T07:06:40;0.60;;;0.40;;
78787;SDS011;68131;52.508;5.502;2023-07-31T07:09:12;0.60;;;0.35;;
78787;SDS011;68131;52.508;5.502;2023-07-31T07:11:41;0.63;;;0.30;;
78787;SDS011;68131;52.508;5.502;2023-07-31T07:14:10;1.40;;;0.70;;
78787;SDS011;68131;52.508;5.502;2023-07-31T07:16:39;0.52;;;0.30;;
78787;SDS011;68131;52.508;5.502;2023-07-31T07:19:09;0.93;;;0.50;;
78787;SDS011;68131;52.508;5.502;2023-07-31T07:21:38;1.92;;;0.85;;
78787;SDS011;68131;52.508;5.502;2023-07-31T07:24:07;0.60;;;0.30;;
78787;SDS011;68131;52.508;5.502;2023-07-31T07:26:39;1.30;;;0.32;;
78787;SDS011;68131;52.508;5.502;2023-07-31T07:29:08;0.13;;;0.13;;
78787;SDS011;68131;52.508;5.502;2023-07-31T07:31:40;0.40;;;0.20;;
78787;SDS011;68131;52.508;5.502;2023-07-31T07:34:09;0.47;;;0.25;;
78787;SDS011;68131;52.508;5.502;2023-07-31T07:36:39;0.52;;;0.20;;
78787;SDS011;68131;52.508;5.502;2023-07-31T07:39:09;0.30;;;0.20;;
78787;SDS011;68131;52.508;5.502;2023-07-31T07:41:42;1.00;;;0.30;;
78787;SDS011;68131;52.508;5.502;2023-07-31T07:44:11;0.63;;;0.50;;
78787;SDS011;68131;52.508;5.502;2023-07-31T07:46:41;0.20;;;0.20;;
78787;SDS011;68131;52.508;5.502;2023-07-31T07:49:10;0.55;;;0.10;;
78787;SDS011;68131;52.508;5.502;2023-07-31T07:51:39;0.70;;;0.30;;
78787;SDS011;68131;52.508;5.502;2023-07-31T07:54:09;0.00;;;0.00;;
78787;SDS011;68131;52.508;5.502;2023-07-31T07:56:38;0.52;;;0.13;;
78787;SDS011;68131;52.508;5.502;2023-07-31T07:59:10;0.93;;;0.82;;
78787;SDS011;68131;52.508;5.502;2023-07-31T08:01:39;0.75;;;0.17;;
78787;SDS011;68131;52.508;5.502;2023-07-31T08:04:08;0.25;;;0.20;;
78787;SDS011;68131;52.508;5.502;2023-07-31T08:06:38;1.13;;;0.13;;
78787;SDS011;68131;52.508;5.502;2023-07-31T08:09:07;0.28;;;0.00;;
78787;SDS011;68131;52.508;5.502;2023-07-31T08:11:36;0.30;;;0.20;;
78787;SDS011;68131;52.508;5.502;2023-07-31T08:14:05;0.20;;;0.20;;
78787;SDS011;68131;52.508;5.502;2023-07-31T08:16:37;0.20;;;0.10;;
78787;SDS011;68131;52.508;5.502;2023-07-31T08:19:06;0.30;;;0.10;;
78787;SDS011;68131;52.508;5.502;2023-07-31T08:21:36;0.20;;;0.20;;
78787;SDS011;68131;52.508;5.502;2023-07-31T08:24:08;0.40;;;0.22;;
78787;SDS011;68131;52.508;5.502;2023-07-31T08:26:39;0.50;;;0.25;;
78787;SDS011;68131;52.508;5.502;2023-07-31T08:29:13;0.47;;;0.30;;
78787;SDS011;68131;52.508;5.502;2023-07-31T08:31:45;0.57;;;0.40;;
78787;SDS011;68131;52.508;5.502;2023-07-31T08:34:14;0.60;;;0.08;;
78787;SDS011;68131;52.508;5.502;2023-07-31T08:36:43;0.70;;;0.20;;
78787;SDS011;68131;52.508;5.502;2023-07-31T08:39:13;0.10;;;0.10;;
78787;SDS011;68131;52.508;5.502;2023-07-31T08:41:42;0.00;;;0.00;;
78787;SDS011;68131;52.508;5.502;2023-07-31T08:44:11;0.10;;;0.10;;
78787;SDS011;68131;52.508;5.502;2023-07-31T08:46:46;0.17;;;0.10;;
78787;SDS011;68131;52.508;5.502;2023-07-31T08:49:17;0.40;;;0.20;;
78787;SDS011;68131;52.508;5.502;2023-07-31T08:51:49;0.35;;;0.10;;
78787;SDS011;68131;52.508;5.502;2023-07-31T08:54:19;0.10;;;0.10;;
78787;SDS011;68131;52.508;5.502;2023-07-31T08:56:49;0.25;;;0.00;;
78787;SDS011;68131;52.508;5.502;2023-07-31T08:59:19;0.10;;;0.05;;
78787;SDS011;68131;52.508;5.502;2023-07-31T09:01:53;0.05;;;0.05;;
78787;SDS011;68131;52.508;5.502;2023-07-31T09:04:24;0.00;;;0.00;;
78787;SDS011;68131;52.508;5.502;2023-07-31T09:06:55;0.15;;;0.00;;
78787;SDS011;68131;52.508;5.502;2023-07-31T09:09:29;0.00;;;0.00;;
78787;SDS011;68131;52.508;5.502;2023-07-31T09:12:01;0.10;;;0.10;;
78787;SDS011;68131;52.508;5.502;2023-07-31T09:14:31;0.10;;;0.10;;
78787;SDS011;68131;52.508;5.502;2023-07-31T09:17:04;0.20;;;0.10;;
78787;SDS011;68131;52.508;5.502;2023-07-31T09:19:35;0.20;;;0.10;;
78787;SDS011;68131;52.508;5.502;2023-07-31T09:22:06;1.65;;;0.30;;
78787;SDS011;68131;52.508;5.502;2023-07-31T09:24:35;0.00;;;0.00;;
78787;SDS011;68131;52.508;5.502;2023-07-31T09:27:05;0.00;;;0.00;;
78787;SDS011;68131;52.508;5.502;2023-07-31T09:29:35;0.20;;;0.00;;
78787;SDS011;68131;52.508;5.502;2023-07-31T09:32:07;0.80;;;0.10;;
78787;SDS011;68131;52.508;5.502;2023-07-31T09:34:45;0.05;;;0.03;;
78787;SDS011;68131;52.508;5.502;2023-07-31T09:37:14;0.10;;;0.10;;
78787;SDS011;68131;52.508;5.502;2023-07-31T09:39:48;0.17;;;0.00;;
78787;SDS011;68131;52.508;5.502;2023-07-31T09:42:24;0.00;;;0.00;;
78787;SDS011;68131;52.508;5.502;2023-07-31T09:45:06;0.10;;;0.10;;
78787;SDS011;68131;52.508;5.502;2023-07-31T09:47:39;0.00;;;0.00;;
78787;SDS011;68131;52.508;5.502;2023-07-31T09:50:15;0.00;;;0.00;;
78787;SDS011;68131;52.508;5.502;2023-07-31T09:52:44;0.10;;;0.10;;
78787;SDS011;68131;52.508;5.502;2023-07-31T09:55:13;0.20;;;0.13;;
78787;SDS011;68131;52.508;5.502;2023-07-31T09:57:45;0.03;;;0.00;;
78787;SDS011;68131;52.508;5.502;2023-07-31T10:00:16;0.05;;;0.03;;
78787;SDS011;68131;52.508;5.502;2023-07-31T10:02:50;0.00;;;0.00;;
78787;SDS011;68131;52.508;5.502;2023-07-31T10:05:20;1.70;;;0.20;;
78787;SDS011;68131;52.508;5.502;2023-07-31T10:07:51;2.50;;;0.20;;
78787;SDS011;68131;52.508;5.502;2023-07-31T10:10:22;0.30;;;0.20;;
78787;SDS011;68131;52.508;5.502;2023-07-31T10:12:53;0.20;;;0.13;;
78787;SDS011;68131;52.508;5.502;2023-07-31T10:15:24;3.47;;;0.68;;
78787;SDS011;68131;52.508;5.502;2023-07-31T10:17:57;0.80;;;0.38;;
78787;SDS011;68131;52.508;5.502;2023-07-31T10:20:30;0.63;;;0.25;;
78787;SDS011;68131;52.508;5.502;2023-07-31T10:23:00;0.20;;;0.10;;
78787;SDS011;68131;52.508;5.502;2023-07-31T10:25:30;1.05;;;0.43;;
78787;SDS011;68131;52.508;5.502;2023-07-31T10:28:01;1.25;;;0.50;;
78787;SDS011;68131;52.508;5.502;2023-07-31T10:30:31;3.00;;;0.45;;
78787;SDS011;68131;52.508;5.502;2023-07-31T10:33:06;0.82;;;0.35;;
78787;SDS011;68131;52.508;5.502;2023-07-31T10:35:38;1.38;;;0.57;;
78787;SDS011;68131;52.508;5.502;2023-07-31T10:38:09;2.05;;;0.32;;
78787;SDS011;68131;52.508;5.502;2023-07-31T10:40:40;0.45;;;0.30;;
78787;SDS011;68131;52.508;5.502;2023-07-31T10:43:15;1.80;;;0.90;;
78787;SDS011;68131;52.508;5.502;2023-07-31T10:45:53;0.30;;;0.15;;
78787;SDS011;68131;52.508;5.502;2023-07-31T10:48:25;0.75;;;0.40;;
78787;SDS011;68131;52.508;5.502;2023-07-31T10:53:37;1.63;;;0.32;;
78787;SDS011;68131;52.508;5.502;2023-07-31T10:56:09;1.30;;;0.60;;
78787;SDS011;68131;52.508;5.502;2023-07-31T10:58:46;1.15;;;0.45;;
78787;SDS011;68131;52.508;5.502;2023-07-31T11:04:29;0.98;;;0.43;;
78787;SDS011;68131;52.508;5.502;2023-07-31T11:07:01;0.95;;;0.40;;
78787;SDS011;68131;52.508;5.502;2023-07-31T11:09:34;3.05;;;0.60;;
78787;SDS011;68131;52.508;5.502;2023-07-31T11:12:03;4.22;;;0.70;;
78787;SDS011;68131;52.508;5.502;2023-07-31T11:14:33;2.50;;;0.40;;
78787;SDS011;68131;52.508;5.502;2023-07-31T11:17:05;3.33;;;0.80;;
78787;SDS011;68131;52.508;5.502;2023-07-31T11:19:37;1.70;;;0.60;;
78787;SDS011;68131;52.508;5.502;2023-07-31T11:22:06;2.30;;;0.75;;
78787;SDS011;68131;52.508;5.502;2023-07-31T11:24:36;2.97;;;1.05;;
78787;SDS011;68131;52.508;5.502;2023-07-31T11:27:07;1.65;;;0.50;;
78787;SDS011;68131;52.508;5.502;2023-07-31T11:29:36;0.77;;;0.47;;
78787;SDS011;68131;52.508;5.502;2023-07-31T11:32:08;0.55;;;0.38;;
78787;SDS011;68131;52.508;5.502;2023-07-31T11:34:57;0.70;;;0.50;;
78787;SDS011;68131;52.508;5.502;2023-07-31T11:37:38;0.95;;;0.40;;
78787;SDS011;68131;52.508;5.502;2023-07-31T11:40:08;1.23;;;0.75;;
78787;SDS011;68131;52.508;5.502;2023-07-31T11:42:38;1.73;;;0.70;;
78787;SDS011;68131;52.508;5.502;2023-07-31T11:45:10;4.57;;;0.93;;
78787;SDS011;68131;52.508;5.502;2023-07-31T11:47:39;0.50;;;0.38;;
78787;SDS011;68131;52.508;5.502;2023-07-31T11:50:12;1.13;;;0.50;;
78787;SDS011;68131;52.508;5.502;2023-07-31T11:52:44;5.78;;;1.05;;
78787;SDS011;68131;52.508;5.502;2023-07-31T11:55:15;2.95;;;0.80;;
78787;SDS011;68131;52.508;5.502;2023-07-31T11:57:45;1.92;;;0.52;;
78787;SDS011;68131;52.508;5.502;2023-07-31T12:00:16;1.60;;;0.80;;
78787;SDS011;68131;52.508;5.502;2023-07-31T12:02:46;2.75;;;0.70;;
78787;SDS011;68131;52.508;5.502;2023-07-31T12:05:18;3.00;;;0.50;;
78787;SDS011;68131;52.508;5.502;2023-07-31T12:07:51;1.55;;;0.70;;
78787;SDS011;68131;52.508;5.502;2023-07-31T12:10:24;3.95;;;0.88;;
78787;SDS011;68131;52.508;5.502;2023-07-31T12:13:01;3.50;;;0.85;;
78787;SDS011;68131;52.508;5.502;2023-07-31T12:15:39;3.92;;;0.73;;
78787;SDS011;68131;52.508;5.502;2023-07-31T12:18:10;3.00;;;0.60;;
78787;SDS011;68131;52.508;5.502;2023-07-31T12:20:44;2.03;;;0.73;;
78787;SDS011;68131;52.508;5.502;2023-07-31T12:23:14;1.00;;;0.55;;
78787;SDS011;68131;52.508;5.502;2023-07-31T12:25:59;2.40;;;0.85;;
78787;SDS011;68131;52.508;5.502;2023-07-31T12:28:29;1.92;;;0.98;;
78787;SDS011;68131;52.508;5.502;2023-07-31T12:30:59;2.00;;;0.70;;
78787;SDS011;68131;52.508;5.502;2023-07-31T12:33:30;0.85;;;0.57;;
78787;SDS011;68131;52.508;5.502;2023-07-31T12:36:03;3.35;;;0.77;;
78787;SDS011;68131;52.508;5.502;2023-07-31T12:38:35;3.78;;;0.65;;
78787;SDS011;68131;52.508;5.502;2023-07-31T12:41:04;0.90;;;0.47;;
78787;SDS011;68131;52.508;5.502;2023-07-31T12:43:33;2.95;;;0.63;;
78787;SDS011;68131;52.508;5.502;2023-07-31T12:46:03;2.28;;;0.47;;
78787;SDS011;68131;52.508;5.502;2023-07-31T12:48:33;0.95;;;0.55;;
78787;SDS011;68131;52.508;5.502;2023-07-31T12:51:05;3.28;;;0.85;;
78787;SDS011;68131;52.508;5.502;2023-07-31T12:53:35;1.05;;;0.50;;
78787;SDS011;68131;52.508;5.502;2023-07-31T12:56:04;2.38;;;0.43;;
78787;SDS011;68131;52.508;5.502;2023-07-31T12:58:33;1.23;;;0.50;;
78787;SDS011;68131;52.508;5.502;2023-07-31T13:01:03;3.17;;;0.63;;
78787;SDS011;68131;52.508;5.502;2023-07-31T13:03:32;2.53;;;1.08;;
78787;SDS011;68131;52.508;5.502;2023-07-31T13:06:01;2.60;;;0.57;;
78787;SDS011;68131;52.508;5.502;2023-07-31T13:08:33;3.10;;;0.77;;
78787;SDS011;68131;52.508;5.502;2023-07-31T13:11:03;1.65;;;0.80;;
78787;SDS011;68131;52.508;5.502;2023-07-31T13:13:34;1.10;;;0.43;;
78787;SDS011;68131;52.508;5.502;2023-07-31T13:16:04;1.63;;;0.60;;
78787;SDS011;68131;52.508;5.502;2023-07-31T13:18:33;2.47;;;0.50;;
78787;SDS011;68131;52.508;5.502;2023-07-31T13:21:02;3.20;;;0.57;;
78787;SDS011;68131;52.508;5.502;2023-07-31T13:23:37;2.10;;;0.50;;
78787;SDS011;68131;52.508;5.502;2023-07-31T13:26:07;1.65;;;0.77;;
78787;SDS011;68131;52.508;5.502;2023-07-31T13:28:37;1.23;;;0.63;;
78787;SDS011;68131;52.508;5.502;2023-07-31T13:31:06;2.65;;;1.08;;
78787;SDS011;68131;52.508;5.502;2023-07-31T13:33:36;0.90;;;0.73;;
78787;SDS011;68131;52.508;5.502;2023-07-31T13:36:06;3.08;;;0.45;;
78787;SDS011;68131;52.508;5.502;2023-07-31T13:38:38;1.92;;;0.70;;
78787;SDS011;68131;52.508;5.502;2023-07-31T13:41:07;0.82;;;0.45;;
78787;SDS011;68131;52.508;5.502;2023-07-31T13:43:36;0.82;;;0.50;;
78787;SDS011;68131;52.508;5.502;2023-07-31T13:46:06;0.95;;;0.40;;
78787;SDS011;68131;52.508;5.502;2023-07-31T13:48:36;1.48;;;0.20;;
78787;SDS011;68131;52.508;5.502;2023-07-31T13:51:05;1.13;;;0.40;;
78787;SDS011;68131;52.508;5.502;2023-07-31T13:53:37;1.25;;;0.50;;
78787;SDS011;68131;52.508;5.502;2023-07-31T13:56:06;2.85;;;0.52;;
78787;SDS011;68131;52.508;5.502;2023-07-31T13:58:36;2.38;;;0.43;;
78787;SDS011;68131;52.508;5.502;2023-07-31T14:01:08;0.77;;;0.40;;
78787;SDS011;68131;52.508;5.502;2023-07-31T14:03:40;0.82;;;0.50;;
78787;SDS011;68131;52.508;5.502;2023-07-31T14:06:09;0.52;;;0.30;;
78787;SDS011;68131;52.508;5.502;2023-07-31T14:08:41;0.68;;;0.40;;
78787;SDS011;68131;52.508;5.502;2023-07-31T14:11:11;2.45;;;0.57;;
78787;SDS011;68131;52.508;5.502;2023-07-31T14:13:40;0.65;;;0.45;;
78787;SDS011;68131;52.508;5.502;2023-07-31T14:16:09;1.02;;;0.50;;
78787;SDS011;68131;52.508;5.502;2023-07-31T14:18:38;1.85;;;0.70;;
78787;SDS011;68131;52.508;5.502;2023-07-31T14:21:07;1.25;;;0.75;;
78787;SDS011;68131;52.508;5.502;2023-07-31T14:23:37;1.17;;;0.52;;
78787;SDS011;68131;52.508;5.502;2023-07-31T14:26:09;3.83;;;0.50;;
78787;SDS011;68131;52.508;5.502;2023-07-31T14:28:38;0.80;;;0.50;;
78787;SDS011;68131;52.508;5.502;2023-07-31T14:31:07;0.80;;;0.52;;
78787;SDS011;68131;52.508;5.502;2023-07-31T14:33:36;1.38;;;0.57;;
78787;SDS011;68131;52.508;5.502;2023-07-31T14:36:05;1.98;;;0.73;;
78787;SDS011;68131;52.508;5.502;2023-07-31T14:38:35;0.70;;;0.40;;
78787;SDS011;68131;52.508;5.502;2023-07-31T14:41:04;1.48;;;0.63;;
78787;SDS011;68131;52.508;5.502;2023-07-31T14:43:36;0.60;;;0.38;;
78787;SDS011;68131;52.508;5.502;2023-07-31T14:46:05;1.38;;;0.50;;
78787;SDS011;68131;52.508;5.502;2023-07-31T14:48:34;3.58;;;0.82;;
78787;SDS011;68131;52.508;5.502;2023-07-31T14:51:03;1.20;;;0.75;;
78787;SDS011;68131;52.508;5.502;2023-07-31T14:53:33;0.75;;;0.40;;
78787;SDS011;68131;52.508;5.502;2023-07-31T14:56:02;2.30;;;0.50;;
78787;SDS011;68131;52.508;5.502;2023-07-31T14:58:31;3.92;;;0.60;;
78787;SDS011;68131;52.508;5.502;2023-07-31T15:01:03;0.40;;;0.35;;
78787;SDS011;68131;52.508;5.502;2023-07-31T15:03:32;0.30;;;0.20;;
78787;SDS011;68131;52.508;5.502;2023-07-31T15:06:02;0.38;;;0.22;;
78787;SDS011;68131;52.508;5.502;2023-07-31T15:08:33;1.17;;;0.20;;
78787;SDS011;68131;52.508;5.502;2023-07-31T15:11:02;1.55;;;0.52;;
78787;SDS011;68131;52.508;5.502;2023-07-31T15:13:31;0.30;;;0.22;;
78787;SDS011;68131;52.508;5.502;2023-07-31T15:16:03;1.27;;;0.30;;